Vossem  Vossem


Bezoek onze andere website:

Meteotemplate

Home Weather Station

Saratoga


Lokaal brand risico:
CBI


Regionaal brand risico: Meer informatie



METAR rapporten vliegvelden

   
EBBR - Brussels
Gewijzigd: Jun 17 2019 10:50 pm
Helder  
Helder  
   Wind: varieert 3.7 km/h
Wind: varieert 3.7 km/h
Temperatuur: 19°C
Dauwpunt: 13°C
Vochtigheid: 68%
Barometer: 1017 mb
Zicht: meer dan 10 km
Bewolking: Helder
EBBR 172050Z VRB02KT CAVOK 19/13 Q1017 NOSIG
EBAW - Antwerp
Gewijzigd: Jun 17 2019 10:50 pm
Helder  
Helder  
   Wind: NNO 7.4 km/h
Wind: NNO 7.4 km/h
Temperatuur: 20°C
Dauwpunt: 14°C
Vochtigheid: 69%
Barometer: 1017 mb
Zicht: meer dan 10 km
Bewolking: Helder
EBAW 172050Z 03004KT CAVOK 20/14 Q1017 NOSIG
EHBK - Maastricht
Gewijzigd: Jun 17 2019 10:55 pm
Gedeeltelijk bewolkt  
Gedeeltelijk bewolkt  
   Wind: Noorden 7.4 km/h
Wind: Noorden 7.4 km/h
Temperatuur: 21°C
Dauwpunt: 13°C
Vochtigheid: 60%
Barometer: 1016 mb
Bewolking: Gedeeltelijk bewolkt
Zicht: meer dan 10 km
Bewolking: Gedeeltelijk bewolkt
EHBK 172055Z AUTO 01004KT 9999 NSC 21/13 Q1016 NOSIG
EDLV - Nijmegen
Gewijzigd: Jun 17 2019 10:50 pm
Helder  
Helder  
   Wind: Kalm
Wind: Kalm
Temperatuur: 20°C
Dauwpunt: 14°C
Vochtigheid: 69%
Barometer: 1017 mb
Zicht: meer dan 10 km
Bewolking: Helder
EDLV 172050Z 00000KT CAVOK 20/14 Q1017
EHRD - Rotterdam
Gewijzigd: Jun 17 2019 10:55 pm
Gedeeltelijk bewolkt  
Gedeeltelijk bewolkt  
   Wind: Noorden 7.4 km/h
Wind: Noorden 7.4 km/h
Temperatuur: 17°C
Dauwpunt: 13°C
Vochtigheid: 77%
Barometer: 1017 mb
Bewolking: Gedeeltelijk bewolkt
Zicht: meer dan 10 km
Bewolking: Gedeeltelijk bewolkt
EHRD 172055Z AUTO 36004KT 330V030 9999 NSC 17/13 Q1017 NOSIG
 

Script ontwikkeld door  Saratoga-weather.org Aangepast voor de template door  Weerstation Leuven

U vindt ons ook hier:

Het Weer Aktueel

UK Metoffice

European Weather Network

WeatherCloud

Weather Underground

Benelux Weer Netwerk

AWEKAS

Citizen Weather Observer Program (CWOP)

Apparatuur in gebruik:

Weerstation
Davis VP2

Weerprogramma
Meteobridge

Weercomputer
TP-Link MR3020

Davis VP2

Meteobridge

TP-Link MR3020